Terminal Aerodrome Forecast
Issued by NWS Nashville, TN

Current Version | Previous Version | Text Only | Print | Product List | Glossary Off
Versions: 1 2 3 4 5 6 7 8 9 10 11 12 13 14 15 16 17

000
FTUS44 KOHX 311700
TAFCSV
TAF
KCSV 311724Z 3118/0118 06004KT P6SM SCT050 BKN200
     FM010100 VRB02KT P6SM SCT200
     FM010700 00000KT 4SM BR BKN200
     FM010900 00000KT 2SM BR SCT200
     FM011300 00000KT P6SM SCT200=

USA.gov is the U.S. government's official web portal to all federal, state and local government web resources and services.